Time;durP1;ratioP1;P1;durP2;ratioP2;P2;SDS_P1;SDS_P2;PMS_P1;PMS_P2;Temp;Humidity;BMP_temperature;BMP_pressure;BME280_temperature;BME280_humidity;BME280_pressure;Samples;Min_cycle;Max_cycle;Signal;HPM_P1;HPM_P2
2021/08/11 00:00:18;;;;;;;3.53;2.63;;;17.80;99.90;;;;;;4996565;28;20571;-73
2021/08/11 00:02:44;;;;;;;0.80;0.63;;;17.90;99.90;;;;;;4996566;28;20172;-74
2021/08/11 00:05:11;;;;;;;0.70;0.60;;;17.90;99.90;;;;;;5017101;28;20278;-73
2021/08/11 00:07:37;;;;;;;0.90;0.80;;;17.90;99.90;;;;;;5033150;28;20414;-73
2021/08/11 00:10:04;;;;;;;0.90;0.80;;;17.90;99.90;;;;;;5033349;28;20973;-73
2021/08/11 00:12:30;;;;;;;1.83;0.77;;;17.90;99.90;;;;;;5033646;28;20414;-73
2021/08/11 00:14:55;;;;;;;1.00;0.80;;;17.90;99.90;;;;;;5033214;28;20591;-73
2021/08/11 00:17:22;;;;;;;1.40;0.93;;;17.90;99.90;;;;;;5021037;28;20579;-73
2021/08/11 00:19:48;;;;;;;0.80;0.73;;;17.90;99.90;;;;;;5013361;28;20511;-72
2021/08/11 00:22:14;;;;;;;0.80;0.70;;;17.80;99.90;;;;;;5014540;28;20426;-73
2021/08/11 00:24:39;;;;;;;1.13;1.03;;;17.90;99.90;;;;;;5012943;28;20434;-73
2021/08/11 00:27:05;;;;;;;0.80;0.80;;;17.80;99.90;;;;;;5026407;28;20283;-73
2021/08/11 00:29:31;;;;;;;1.20;1.10;;;17.80;99.90;;;;;;5014281;28;20275;-72
2021/08/11 00:31:56;;;;;;;0.70;0.60;;;17.80;99.90;;;;;;5027072;28;20182;-73
2021/08/11 00:34:23;;;;;;;1.00;0.90;;;17.80;99.90;;;;;;5032842;28;20589;-76
2021/08/11 00:36:48;;;;;;;0.93;0.63;;;17.70;99.90;;;;;;5032877;28;20187;-76
2021/08/11 00:39:14;;;;;;;0.90;0.80;;;17.70;99.90;;;;;;5033047;28;20428;-74
2021/08/11 00:41:45;;;;;;;1.33;1.20;;;17.70;99.90;;;;;;5016402;28;20705;-76
2021/08/11 00:44:12;;;;;;;0.90;0.67;;;17.70;99.90;;;;;;5013794;28;20255;-72
2021/08/11 00:46:45;;;;;;;0.77;0.63;;;17.60;99.90;;;;;;5012902;28;20498;-76
2021/08/11 00:49:14;;;;;;;1.80;1.70;;;17.60;99.90;;;;;;4997171;28;20466;-74
2021/08/11 00:51:43;;;;;;;0.70;0.53;;;17.60;99.90;;;;;;5023959;28;20488;-73
2021/08/11 00:54:11;;;;;;;0.80;0.80;;;17.60;99.90;;;;;;5025584;28;20501;-74
2021/08/11 00:56:40;;;;;;;0.70;0.60;;;17.50;99.90;;;;;;5029378;28;20536;-73
2021/08/11 00:59:07;;;;;;;0.70;0.60;;;17.50;99.90;;;;;;5013948;28;20407;-74
2021/08/11 01:01:36;;;;;;;2.70;0.70;;;17.50;99.90;;;;;;5010187;28;20525;-74
2021/08/11 01:04:02;;;;;;;1.50;0.70;;;17.50;99.90;;;;;;5023019;28;20434;-75
2021/08/11 01:06:30;;;;;;;0.70;0.50;;;17.50;99.90;;;;;;5008862;28;20457;-73
2021/08/11 01:08:56;;;;;;;1.17;1.07;;;17.50;99.90;;;;;;5016978;28;20465;-75
2021/08/11 01:11:23;;;;;;;0.80;0.70;;;17.50;99.90;;;;;;5012733;28;20769;-74
2021/08/11 01:13:49;;;;;;;0.80;0.80;;;17.50;99.90;;;;;;5030304;28;20660;-75
2021/08/11 01:16:15;;;;;;;1.17;0.93;;;17.50;99.90;;;;;;5012100;28;20450;-74
2021/08/11 01:18:41;;;;;;;1.90;1.20;;;17.50;99.90;;;;;;5015707;28;20856;-74
2021/08/11 01:21:22;;;;;;;1.37;0.60;;;17.50;99.90;;;;;;5032179;28;20167;-73
2021/08/11 01:24:16;;;;;;;10.50;2.00;;;17.50;99.90;;;;;;5014387;28;20629;-74
2021/08/11 01:27:09;;;;;;;6.27;1.00;;;17.50;99.90;;;;;;5013929;28;20438;-74
2021/08/11 01:29:50;;;;;;;0.97;0.97;;;17.50;99.90;;;;;;5030304;28;20464;-74
2021/08/11 01:32:30;;;;;;;1.13;1.03;;;17.50;99.90;;;;;;5012754;28;20433;-74
2021/08/11 01:34:59;;;;;;;0.70;0.60;;;17.50;99.90;;;;;;5011888;28;20501;-74
2021/08/11 01:37:31;;;;;;;0.83;0.70;;;17.40;99.90;;;;;;5012278;28;20494;-75
2021/08/11 01:40:00;;;;;;;0.70;0.60;;;17.40;99.90;;;;;;4998741;28;20431;-76
2021/08/11 01:42:32;;;;;;;0.70;0.50;;;17.40;99.90;;;;;;5027306;28;20434;-75
2021/08/11 01:45:04;;;;;;;0.70;0.50;;;17.40;99.90;;;;;;5024675;28;20511;-73
2021/08/11 01:47:38;;;;;;;0.70;0.50;;;17.40;99.90;;;;;;5024621;28;20442;-75
2021/08/11 01:50:06;;;;;;;0.90;0.80;;;17.40;99.90;;;;;;5030380;28;20464;-74
2021/08/11 01:52:38;;;;;;;0.80;0.60;;;17.30;99.90;;;;;;5031840;28;20457;-75
2021/08/11 01:55:05;;;;;;;0.80;0.63;;;17.20;99.90;;;;;;5013712;28;20465;-76
2021/08/11 01:57:30;;;;;;;0.70;0.60;;;17.10;99.90;;;;;;5017818;28;20581;-74
2021/08/11 01:59:56;;;;;;;0.80;0.70;;;17.10;99.90;;;;;;5031708;28;20438;-74
2021/08/11 02:02:23;;;;;;;1.07;0.97;;;17.10;99.90;;;;;;5012875;28;20211;-74
2021/08/11 02:04:48;;;;;;;1.07;0.97;;;17.00;99.90;;;;;;5012891;28;20183;-74
2021/08/11 02:07:15;;;;;;;0.93;0.70;;;17.00;99.90;;;;;;5012559;28;20817;-74
2021/08/11 02:09:41;;;;;;;0.80;0.70;;;17.00;99.90;;;;;;5021494;28;20231;-75
2021/08/11 02:12:09;;;;;;;1.13;1.03;;;17.00;99.90;;;;;;5026720;28;20442;-75
2021/08/11 02:14:38;;;;;;;2.50;0.93;;;17.00;99.90;;;;;;5025885;28;20482;-74
2021/08/11 02:17:03;;;;;;;4.40;1.00;;;16.90;99.90;;;;;;5030713;28;20418;-75
2021/08/11 02:19:29;;;;;;;0.70;0.60;;;17.00;99.90;;;;;;5031794;28;20752;-75
2021/08/11 02:21:54;;;;;;;0.70;0.60;;;17.00;99.90;;;;;;5021029;28;20544;-74
2021/08/11 02:24:20;;;;;;;2.70;0.90;;;16.90;99.90;;;;;;5030724;28;20633;-75
2021/08/11 02:27:05;;;;;;;1.10;0.97;;;16.90;99.90;;;;;;5020071;28;20208;-75
2021/08/11 02:29:47;;;;;;;0.80;0.80;;;16.90;99.90;;;;;;5011434;28;20192;-74
2021/08/11 02:32:29;;;;;;;1.30;1.20;;;16.90;99.90;;;;;;5011613;28;20812;-75
2021/08/11 02:35:17;;;;;;;0.80;0.70;;;16.90;99.90;;;;;;5017851;28;20517;-73
2021/08/11 02:38:13;;;;;;;2.83;0.90;;;16.90;99.90;;;;;;5009698;28;20484;-74
2021/08/11 02:40:40;;;;;;;1.23;0.90;;;16.90;99.90;;;;;;5019236;28;20435;-75
2021/08/11 02:43:15;;;;;;;1.43;1.27;;;16.90;99.90;;;;;;5020865;28;20427;-75
2021/08/11 02:45:41;;;;;;;0.80;0.70;;;16.80;99.90;;;;;;5008069;28;20540;-75
2021/08/11 02:48:11;;;;;;;1.30;1.20;;;16.80;99.90;;;;;;5034313;28;20436;-73
2021/08/11 02:50:38;;;;;;;1.00;0.80;;;16.80;99.90;;;;;;5022705;28;20418;-75
2021/08/11 02:53:05;;;;;;;0.77;0.60;;;16.80;99.90;;;;;;5026650;28;20426;-74
2021/08/11 02:55:36;;;;;;;0.80;0.80;;;16.70;99.90;;;;;;5031891;28;20465;-74
2021/08/11 02:58:02;;;;;;;0.70;0.50;;;16.70;99.90;;;;;;4996967;28;20431;-73
2021/08/11 03:00:28;;;;;;;0.80;0.60;;;16.60;99.90;;;;;;5014683;28;20510;-75
2021/08/11 03:02:54;;;;;;;0.70;0.57;;;16.50;99.90;;;;;;5014864;28;20522;-75
2021/08/11 03:05:20;;;;;;;0.80;0.60;;;16.50;99.90;;;;;;5017689;28;20195;-74
2021/08/11 03:07:46;;;;;;;0.70;0.60;;;16.40;99.90;;;;;;5029141;28;20481;-74
2021/08/11 03:10:12;;;;;;;0.80;0.77;;;16.40;99.90;;;;;;4997131;28;20238;-74
2021/08/11 03:12:38;;;;;;;4.80;1.03;;;16.40;99.90;;;;;;5023764;28;21050;-74
2021/08/11 03:15:06;;;;;;;1.30;0.70;;;16.40;99.90;;;;;;5024026;28;20190;-74
2021/08/11 03:17:31;;;;;;;0.70;0.60;;;16.40;99.90;;;;;;5030985;28;20225;-73
2021/08/11 03:19:57;;;;;;;3.43;3.23;;;16.40;99.90;;;;;;5029919;28;20513;-74
2021/08/11 03:22:23;;;;;;;0.70;0.50;;;16.30;99.90;;;;;;5033484;28;20164;-75
2021/08/11 03:24:48;;;;;;;0.90;0.80;;;16.40;99.90;;;;;;5032896;28;20171;-75
2021/08/11 03:27:14;;;;;;;3.17;1.03;;;16.40;99.90;;;;;;5033115;28;20172;-74
2021/08/11 03:29:39;;;;;;;1.00;0.80;;;16.30;99.90;;;;;;5032366;28;20286;-75
2021/08/11 03:32:05;;;;;;;2.30;2.13;;;16.20;99.90;;;;;;5015990;28;20176;-75
2021/08/11 03:34:31;;;;;;;0.90;0.70;;;16.20;99.90;;;;;;5020295;28;20229;-74
2021/08/11 03:36:56;;;;;;;1.37;1.03;;;16.00;99.90;;;;;;5012897;28;20454;-76
2021/08/11 03:39:22;;;;;;;0.70;0.50;;;16.00;99.90;;;;;;5024399;28;20171;-75
2021/08/11 03:41:48;;;;;;;0.70;0.60;;;16.00;99.90;;;;;;5017458;28;20227;-76
2021/08/11 03:44:13;;;;;;;5.17;1.17;;;16.10;99.90;;;;;;5015245;28;20194;-74
2021/08/11 03:46:39;;;;;;;1.20;0.70;;;16.10;99.90;;;;;;5031707;28;20195;-75
2021/08/11 03:49:04;;;;;;;1.07;0.63;;;16.10;99.90;;;;;;5033198;28;20192;-75
2021/08/11 03:51:30;;;;;;;1.23;0.60;;;16.10;99.90;;;;;;5026710;28;20180;-75
2021/08/11 03:53:55;;;;;;;0.93;0.83;;;16.20;99.90;;;;;;5013808;28;20241;-75
2021/08/11 03:56:21;;;;;;;1.20;0.70;;;16.10;99.90;;;;;;5015454;28;20199;-74
2021/08/11 03:58:46;;;;;;;0.90;0.73;;;16.10;99.90;;;;;;5030390;28;20258;-74
2021/08/11 04:01:12;;;;;;;1.07;0.83;;;16.20;99.90;;;;;;5020505;28;20191;-75
2021/08/11 04:03:38;;;;;;;0.70;0.50;;;16.20;99.90;;;;;;5027706;28;20186;-71
2021/08/11 04:06:03;;;;;;;1.03;0.93;;;16.20;99.90;;;;;;5025965;28;20250;-75
2021/08/11 04:08:29;;;;;;;0.80;0.80;;;16.20;99.90;;;;;;5011588;28;20200;-74
2021/08/11 04:10:54;;;;;;;0.80;0.80;;;16.20;99.90;;;;;;5015072;28;20259;-75
2021/08/11 04:13:20;;;;;;;7.10;0.90;;;16.30;99.90;;;;;;4976797;28;1038162;-74
2021/08/11 04:15:47;;;;;;;0.70;0.60;;;16.20;99.90;;;;;;5020886;28;20200;-75
2021/08/11 04:18:12;;;;;;;0.90;0.77;;;16.20;99.90;;;;;;5021109;28;20430;-75
2021/08/11 04:20:38;;;;;;;0.70;0.50;;;16.30;99.90;;;;;;5013698;28;21001;-75
2021/08/11 04:23:05;;;;;;;0.70;0.60;;;16.30;99.90;;;;;;4996754;28;20180;-74
2021/08/11 04:25:31;;;;;;;0.80;0.60;;;16.30;99.90;;;;;;5016337;28;20454;-75
2021/08/11 04:27:57;;;;;;;0.70;0.60;;;16.30;99.90;;;;;;5014728;28;20449;-75
2021/08/11 04:30:22;;;;;;;1.20;1.10;;;16.30;99.90;;;;;;5012855;28;20203;-72
2021/08/11 04:32:48;;;;;;;0.90;0.90;;;16.30;99.90;;;;;;5015524;28;20225;-74
2021/08/11 04:35:14;;;;;;;1.00;0.70;;;16.30;99.90;;;;;;5021423;28;20209;-74
2021/08/11 04:37:39;;;;;;;0.80;0.70;;;16.30;99.90;;;;;;5026849;28;20184;-75
2021/08/11 04:40:07;;;;;;;0.83;0.83;;;16.20;99.90;;;;;;5032153;28;20171;-75
2021/08/11 04:42:33;;;;;;;1.73;1.63;;;16.20;99.90;;;;;;5021790;28;20172;-75
2021/08/11 04:44:59;;;;;;;1.20;1.10;;;16.20;99.90;;;;;;5025603;28;20905;-75
2021/08/11 04:47:24;;;;;;;1.57;0.73;;;16.10;99.90;;;;;;5031326;28;20205;-75
2021/08/11 04:49:50;;;;;;;0.80;0.70;;;16.10;99.90;;;;;;5020237;28;20475;-74
2021/08/11 04:52:16;;;;;;;0.70;0.50;;;16.10;99.90;;;;;;5015328;28;20190;-74
2021/08/11 04:54:41;;;;;;;0.70;0.50;;;16.10;99.90;;;;;;5021554;28;20433;-74
2021/08/11 04:57:07;;;;;;;0.80;0.80;;;16.10;99.90;;;;;;5014972;28;20203;-75
2021/08/11 04:59:32;;;;;;;0.87;0.57;;;16.10;99.90;;;;;;5026589;28;20180;-75
2021/08/11 05:01:58;;;;;;;1.80;1.33;;;16.10;99.90;;;;;;5013752;28;20188;-73
2021/08/11 05:04:23;;;;;;;1.23;1.13;;;16.10;99.90;;;;;;4999495;28;20713;-75
2021/08/11 05:06:49;;;;;;;0.90;0.67;;;16.10;99.90;;;;;;5018472;28;20231;-74
2021/08/11 05:09:14;;;;;;;1.00;0.77;;;16.20;99.90;;;;;;5013113;28;20207;-74
2021/08/11 05:11:41;;;;;;;0.77;0.60;;;16.20;99.90;;;;;;5030091;28;20234;-75
2021/08/11 05:14:06;;;;;;;1.60;1.50;;;16.20;99.90;;;;;;5032330;28;20190;-73
2021/08/11 05:16:32;;;;;;;6.50;1.37;;;16.30;99.90;;;;;;5021256;28;20447;-75
2021/08/11 05:18:57;;;;;;;0.90;0.73;;;16.30;99.90;;;;;;5026043;28;20206;-74
2021/08/11 05:21:25;;;;;;;1.23;1.13;;;16.40;99.90;;;;;;5009534;28;20275;-75
2021/08/11 05:23:51;;;;;;;1.13;0.70;;;16.40;99.90;;;;;;4997003;28;20180;-74
2021/08/11 05:26:17;;;;;;;0.70;0.53;;;16.50;99.90;;;;;;5024754;28;20817;-75
2021/08/11 05:28:43;;;;;;;0.70;0.60;;;16.50;99.90;;;;;;5027642;28;20461;-75
2021/08/11 05:31:08;;;;;;;2.50;2.30;;;16.60;99.90;;;;;;5016310;28;20450;-75
2021/08/11 05:33:34;;;;;;;1.77;0.93;;;16.70;99.90;;;;;;5013969;28;20826;-75
2021/08/11 05:36:00;;;;;;;1.10;1.00;;;16.70;99.90;;;;;;5026478;28;20196;-74
2021/08/11 05:38:27;;;;;;;1.57;1.10;;;16.80;99.90;;;;;;5012678;28;20184;-75
2021/08/11 05:40:52;;;;;;;1.20;1.10;;;16.90;99.90;;;;;;5012270;28;20435;-75
2021/08/11 05:43:18;;;;;;;0.73;0.63;;;17.00;99.90;;;;;;5004889;28;20426;-75
2021/08/11 05:45:44;;;;;;;1.13;0.70;;;17.20;99.90;;;;;;5030902;28;20195;-75
2021/08/11 05:48:09;;;;;;;2.03;1.63;;;17.20;99.90;;;;;;5027867;28;20259;-76
2021/08/11 05:50:35;;;;;;;1.00;0.60;;;17.30;99.90;;;;;;5018295;28;20199;-75
2021/08/11 05:53:00;;;;;;;3.80;1.03;;;17.50;99.90;;;;;;5027231;28;20234;-76
2021/08/11 05:55:26;;;;;;;1.83;0.80;;;17.70;99.90;;;;;;5019093;28;20206;-75
2021/08/11 05:57:51;;;;;;;3.73;1.10;;;17.80;99.90;;;;;;5027705;28;20179;-74
2021/08/11 06:00:17;;;;;;;0.80;0.70;;;17.90;99.90;;;;;;5023531;28;20199;-76
2021/08/11 06:02:43;;;;;;;0.97;0.87;;;17.90;99.90;;;;;;5017094;28;20180;-77
2021/08/11 06:05:10;;;;;;;0.90;0.60;;;18.10;99.90;;;;;;5022392;28;20199;-75
2021/08/11 06:07:36;;;;;;;0.80;0.63;;;18.10;99.90;;;;;;5031131;28;20187;-75
2021/08/11 06:10:04;;;;;;;0.73;0.60;;;18.20;99.90;;;;;;5031654;28;20449;-74
2021/08/11 06:12:30;;;;;;;0.93;0.83;;;18.40;99.90;;;;;;5013472;28;20427;-75
2021/08/11 06:14:55;;;;;;;1.07;0.97;;;18.40;99.90;;;;;;5029102;28;20450;-74
2021/08/11 06:17:21;;;;;;;0.80;0.70;;;18.50;99.90;;;;;;5026882;28;20947;-74
2021/08/11 06:19:47;;;;;;;2.57;1.80;;;18.70;99.90;;;;;;5016616;28;20223;-75
2021/08/11 06:22:13;;;;;;;1.60;1.50;;;18.80;99.90;;;;;;5007220;28;20187;-76
2021/08/11 06:24:39;;;;;;;0.93;0.80;;;19.00;99.90;;;;;;5031382;28;20516;-76
2021/08/11 06:27:04;;;;;;;0.90;0.70;;;19.30;99.90;;;;;;5030282;28;20549;-75
2021/08/11 06:29:30;;;;;;;1.03;1.03;;;19.70;99.90;;;;;;5035475;28;20282;-76
2021/08/11 06:31:56;;;;;;;1.10;1.00;;;20.10;99.90;;;;;;5030033;28;20630;-76
2021/08/11 06:34:23;;;;;;;5.33;2.00;;;20.60;99.90;;;;;;5028295;28;20430;-76
2021/08/11 06:36:50;;;;;;;0.90;0.70;;;20.80;99.90;;;;;;5020498;28;20211;-76
2021/08/11 06:39:15;;;;;;;0.80;0.60;;;20.90;99.90;;;;;;5015282;28;20485;-76
2021/08/11 06:41:41;;;;;;;0.80;0.70;;;21.10;99.90;;;;;;5028881;28;20922;-75
2021/08/11 06:44:07;;;;;;;2.50;1.43;;;21.30;99.90;;;;;;5017533;28;20187;-76
2021/08/11 06:46:32;;;;;;;1.30;1.20;;;21.40;99.90;;;;;;5023810;28;20199;-76
2021/08/11 06:48:58;;;;;;;0.90;0.90;;;21.40;99.90;;;;;;5015256;28;20669;-76
2021/08/11 06:51:23;;;;;;;0.70;0.60;;;21.30;99.90;;;;;;5015024;28;20668;-75
2021/08/11 06:53:49;;;;;;;1.63;1.50;;;21.40;99.90;;;;;;5018429;28;20517;-76
2021/08/11 06:56:14;;;;;;;1.07;0.93;;;21.70;99.90;;;;;;5030870;28;20191;-75
2021/08/11 06:58:40;;;;;;;0.80;0.67;;;22.00;99.90;;;;;;5015031;28;20661;-76
2021/08/11 07:01:06;;;;;;;1.20;1.03;;;22.10;99.90;;;;;;5026152;28;20547;-75
2021/08/11 07:03:31;;;;;;;1.40;1.17;;;22.30;99.90;;;;;;5030566;28;20192;-75
2021/08/11 07:05:57;;;;;;;1.27;1.17;;;22.50;99.90;;;;;;5021677;28;21055;-76
2021/08/11 07:08:22;;;;;;;0.80;0.80;;;22.50;99.90;;;;;;5014726;28;20184;-75
2021/08/11 07:10:49;;;;;;;1.00;0.90;;;22.60;99.90;;;;;;5014996;28;20172;-75
2021/08/11 07:13:18;;;;;;;1.17;1.07;;;22.60;99.90;;;;;;5014734;28;20172;-76
2021/08/11 07:15:43;;;;;;;1.20;0.80;;;22.80;99.90;;;;;;5010493;28;20919;-76
2021/08/11 07:18:09;;;;;;;1.93;1.57;;;22.80;99.90;;;;;;5031125;28;20497;-76
2021/08/11 07:20:35;;;;;;;1.20;1.10;;;22.80;99.90;;;;;;5016091;28;20176;-76
2021/08/11 07:23:00;;;;;;;1.27;1.17;;;22.60;99.90;;;;;;5027251;28;20444;-75
2021/08/11 07:25:27;;;;;;;1.37;1.27;;;22.70;99.90;;;;;;5023626;28;20199;-76
2021/08/11 07:27:53;;;;;;;0.80;0.70;;;22.90;99.90;;;;;;5007280;28;20183;-75
2021/08/11 07:30:19;;;;;;;4.83;2.07;;;23.00;99.90;;;;;;5013867;28;20549;-75
2021/08/11 07:32:45;;;;;;;0.83;0.80;;;22.90;99.90;;;;;;5014112;28;20863;-76
2021/08/11 07:35:12;;;;;;;1.30;0.80;;;22.80;99.90;;;;;;5021533;28;20227;-76
2021/08/11 07:37:52;;;;;;;1.43;1.33;;;22.90;99.90;;;;;;5019465;28;20485;-76
2021/08/11 07:40:20;;;;;;;0.80;0.60;;;23.20;99.90;;;;;;5025367;28;20485;-74
2021/08/11 07:42:46;;;;;;;1.80;1.70;;;23.40;99.90;;;;;;5002811;28;20435;-76
2021/08/11 07:45:13;;;;;;;1.37;1.27;;;23.70;99.90;;;;;;5024628;28;20450;-75
2021/08/11 07:47:39;;;;;;;1.20;0.63;;;24.00;99.90;;;;;;4999311;28;20493;-74
2021/08/11 07:50:06;;;;;;;2.70;1.33;;;24.00;99.90;;;;;;5015260;28;20833;-76
2021/08/11 07:52:32;;;;;;;2.37;1.10;;;24.30;99.90;;;;;;5029176;28;20175;-76
2021/08/11 07:54:57;;;;;;;5.47;1.73;;;24.50;99.90;;;;;;5022026;28;20415;-76
2021/08/11 07:57:23;;;;;;;0.90;0.83;;;24.40;99.90;;;;;;5026688;28;20420;-76
2021/08/11 07:59:48;;;;;;;1.50;1.40;;;24.40;99.90;;;;;;5016506;28;20187;-75
2021/08/11 08:02:14;;;;;;;1.57;1.40;;;24.40;99.90;;;;;;5018743;28;20176;-77
2021/08/11 08:04:43;;;;;;;2.50;1.70;;;24.30;99.90;;;;;;5032938;28;20172;-76
2021/08/11 08:07:08;;;;;;;1.20;1.00;;;24.30;99.90;;;;;;5014237;28;20187;-76
2021/08/11 08:09:34;;;;;;;2.63;1.73;;;24.40;99.90;;;;;;5033479;28;20450;-76
2021/08/11 08:12:00;;;;;;;3.47;3.17;;;24.40;99.90;;;;;;5031321;28;20254;-76
2021/08/11 08:14:25;;;;;;;1.00;0.83;;;24.40;99.90;;;;;;5016109;28;20281;-75
2021/08/11 08:16:51;;;;;;;5.50;2.13;;;24.50;99.90;;;;;;5030000;28;20241;-76
2021/08/11 08:19:16;;;;;;;0.87;0.87;;;24.80;99.90;;;;;;5031633;28;20172;-76
2021/08/11 08:21:42;;;;;;;1.43;1.30;;;25.00;99.90;;;;;;5018537;28;20556;-76
2021/08/11 08:24:07;;;;;;;1.13;0.97;;;25.20;99.90;;;;;;5032510;28;20276;-76
2021/08/11 08:26:33;;;;;;;1.10;1.00;;;25.80;99.90;;;;;;5015158;28;20198;-76
2021/08/11 08:28:59;;;;;;;1.10;1.00;;;26.00;99.90;;;;;;5031279;28;20199;-75
2021/08/11 08:31:24;;;;;;;0.80;0.60;;;26.40;99.90;;;;;;5017656;28;20255;-76
2021/08/11 08:33:50;;;;;;;0.90;0.80;;;26.50;99.90;;;;;;5013293;28;20671;-76
2021/08/11 08:36:15;;;;;;;1.77;1.67;;;26.60;99.90;;;;;;5012959;28;20224;-77
2021/08/11 08:38:41;;;;;;;2.27;1.03;;;27.00;99.90;;;;;;5013494;28;20255;-76
2021/08/11 08:41:10;;;;;;;1.83;1.73;;;27.40;99.90;;;;;;5023071;28;20722;-76
2021/08/11 08:43:35;;;;;;;2.03;1.93;;;27.40;99.90;;;;;;5027235;28;20993;-76
2021/08/11 08:46:01;;;;;;;1.30;1.20;;;27.30;99.90;;;;;;5033203;28;20442;-76
2021/08/11 08:48:27;;;;;;;1.00;0.80;;;27.60;99.90;;;;;;5019295;28;20187;-75
2021/08/11 08:50:53;;;;;;;1.57;1.47;;;27.80;99.90;;;;;;5018517;28;20178;-76
2021/08/11 08:53:22;;;;;;;1.50;1.40;;;28.30;99.90;;;;;;5032265;28;20164;-76
2021/08/11 08:55:48;;;;;;;1.47;1.13;;;28.70;99.90;;;;;;5031877;28;20198;-76
2021/08/11 08:58:14;;;;;;;1.47;1.03;;;29.10;99.90;;;;;;5032510;28;20402;-75
2021/08/11 09:00:40;;;;;;;1.00;0.80;;;29.30;99.90;;;;;;5032467;28;20415;-75
2021/08/11 09:03:05;;;;;;;1.00;0.70;;;29.30;99.90;;;;;;5032562;28;20167;-76
2021/08/11 09:05:31;;;;;;;1.33;1.23;;;29.10;99.90;;;;;;5032158;28;20430;-75
2021/08/11 09:07:57;;;;;;;1.03;0.90;;;28.70;99.90;;;;;;5014611;28;20640;-75
2021/08/11 09:10:25;;;;;;;1.37;1.20;;;28.90;99.90;;;;;;5014597;28;20603;-76
2021/08/11 09:12:54;;;;;;;3.33;1.20;;;28.70;99.90;;;;;;5032314;28;20257;-76
2021/08/11 09:15:33;;;;;;;1.07;0.97;;;28.40;99.90;;;;;;5034046;28;20810;-75
2021/08/11 09:18:09;;;;;;;1.40;1.03;;;28.60;99.90;;;;;;5032315;28;21093;-76
2021/08/11 09:20:35;;;;;;;1.47;1.10;;;28.70;99.90;;;;;;5034636;28;20775;-77
2021/08/11 09:23:01;;;;;;;1.10;0.80;;;28.60;99.90;;;;;;5035303;28;20411;-78
2021/08/11 09:25:26;;;;;;;1.20;1.00;;;28.60;99.90;;;;;;5032427;28;20416;-77
2021/08/11 09:27:52;;;;;;;1.40;1.10;;;28.60;99.90;;;;;;5032090;28;20171;-76
2021/08/11 09:30:26;;;;;;;1.30;1.20;;;28.40;99.90;;;;;;5031957;28;20238;-76
2021/08/11 09:33:04;;;;;;;1.50;1.40;;;28.20;99.90;;;;;;5032156;28;20165;-76
2021/08/11 09:35:31;;;;;;;1.40;1.30;;;28.00;99.90;;;;;;5031683;28;20418;-77
2021/08/11 09:37:59;;;;;;;0.87;0.70;;;27.70;99.90;;;;;;5031909;28;20430;-76
2021/08/11 09:40:30;;;;;;;1.47;1.37;;;27.60;99.90;;;;;;5032067;28;20410;-77
2021/08/11 09:43:00;;;;;;;3.00;0.80;;;27.20;99.90;;;;;;5014268;28;20784;-76
2021/08/11 09:45:27;;;;;;;2.10;1.93;;;26.90;99.90;;;;;;5031652;28;20468;-76
2021/08/11 09:47:58;;;;;;;1.20;1.10;;;26.80;99.90;;;;;;5032237;28;20402;-77
2021/08/11 09:50:38;;;;;;;1.73;1.00;;;26.60;99.90;;;;;;5032116;28;20441;-77
2021/08/11 09:53:04;;;;;;;1.40;1.20;;;26.20;99.90;;;;;;5033138;28;20412;-76
2021/08/11 09:55:50;;;;;;;1.33;0.93;;;26.00;99.90;;;;;;5026075;28;20617;-76
2021/08/11 09:58:19;;;;;;;1.00;0.83;;;26.20;99.90;;;;;;5016060;28;20447;-76
2021/08/11 10:00:45;;;;;;;1.00;0.80;;;26.50;99.90;;;;;;5016176;28;20422;-75
2021/08/11 10:03:11;;;;;;;0.93;0.83;;;26.90;99.90;;;;;;5015859;28;20446;-76
2021/08/11 10:05:37;;;;;;;0.80;0.63;;;27.20;99.90;;;;;;5015744;28;20276;-77
2021/08/11 10:08:04;;;;;;;0.87;0.60;;;27.50;99.90;;;;;;5016684;28;20291;-77
2021/08/11 10:10:44;;;;;;;0.90;0.60;;;27.40;99.90;;;;;;5016942;28;20780;-78
2021/08/11 10:13:09;;;;;;;1.00;0.80;;;27.50;99.90;;;;;;5019324;28;20893;-78
2021/08/11 10:15:35;;;;;;;1.53;1.43;;;27.70;99.90;;;;;;5015927;28;20449;-76
2021/08/11 10:18:01;;;;;;;0.80;0.70;;;27.80;99.90;;;;;;5015747;28;20560;-76
2021/08/11 10:20:27;;;;;;;1.00;0.90;;;27.90;99.90;;;;;;5015619;28;20218;-76
2021/08/11 10:22:53;;;;;;;1.20;1.10;;;28.00;99.90;;;;;;5015997;28;20415;-77
2021/08/11 10:25:21;;;;;;;2.87;2.37;;;28.30;99.90;;;;;;5016774;28;20506;-77
2021/08/11 10:27:47;;;;;;;1.00;0.80;;;28.80;99.90;;;;;;5016297;28;20263;-77
2021/08/11 10:30:14;;;;;;;1.33;1.17;;;29.00;99.90;;;;;;5015505;28;20821;-76
2021/08/11 10:32:41;;;;;;;1.00;0.80;;;29.30;99.90;;;;;;5015545;28;20490;-76
2021/08/11 10:35:07;;;;;;;0.83;0.63;;;29.10;99.90;;;;;;5015259;28;20505;-76
2021/08/11 10:37:33;;;;;;;1.60;1.00;;;28.90;99.90;;;;;;5015369;28;20465;-76
2021/08/11 10:40:00;;;;;;;1.27;0.93;;;29.20;99.90;;;;;;5014188;28;20457;-77
2021/08/11 10:42:27;;;;;;;1.10;0.90;;;29.40;99.90;;;;;;5018076;28;20410;-78
2021/08/11 10:44:59;;;;;;;1.20;0.70;;;29.70;99.90;;;;;;5017612;28;20439;-78
2021/08/11 10:47:35;;;;;;;1.37;1.27;;;30.10;99.90;;;;;;5016098;28;20407;-77
2021/08/11 10:50:04;;;;;;;1.20;1.10;;;30.50;99.90;;;;;;5016398;28;20454;-78
2021/08/11 10:52:31;;;;;;;2.07;1.87;;;30.90;99.90;;;;;;5014825;28;20422;-76
2021/08/11 10:55:03;;;;;;;2.00;1.03;;;31.10;99.90;;;;;;5014764;28;20399;-76
2021/08/11 10:57:34;;;;;;;0.93;0.83;;;31.10;99.90;;;;;;5015153;28;20403;-76
2021/08/11 11:00:04;;;;;;;1.30;1.17;;;31.50;99.90;;;;;;5013847;28;20423;-76
2021/08/11 11:02:41;;;;;;;1.10;1.00;;;31.90;99.90;;;;;;5015004;28;20473;-78
2021/08/11 11:05:27;;;;;;;1.10;1.00;;;32.30;99.90;;;;;;5014833;28;20434;-76
2021/08/11 11:08:12;;;;;;;1.30;1.17;;;32.30;99.90;;;;;;5014749;28;20419;-76
2021/08/11 11:10:39;;;;;;;1.23;0.90;;;32.30;99.90;;;;;;5014752;28;21015;-76
2021/08/11 11:13:23;;;;;;;0.90;0.70;;;32.00;99.40;;;;;;5015766;28;20400;-77
2021/08/11 11:15:56;;;;;;;1.13;0.93;;;32.30;99.90;;;;;;5015152;28;20446;-76
2021/08/11 11:18:22;;;;;;;1.70;1.10;;;32.30;99.90;;;;;;5014668;28;20394;-75
2021/08/11 11:21:10;;;;;;;1.30;1.20;;;32.10;99.90;;;;;;5015243;28;20482;-77
2021/08/11 11:23:36;;;;;;;1.20;1.10;;;32.00;99.90;;;;;;5015948;28;20415;-77
2021/08/11 11:26:15;;;;;;;1.70;1.20;;;31.80;99.90;;;;;;5015087;28;20447;-76
2021/08/11 11:29:04;;;;;;;1.30;0.90;;;31.60;99.90;;;;;;5016139;28;20548;-77
2021/08/11 11:31:34;;;;;;;1.20;1.00;;;30.70;97.70;;;;;;5015988;28;20614;-78
2021/08/11 11:34:18;;;;;;;1.30;0.90;;;30.50;99.90;;;;;;5014845;28;20438;-76
2021/08/11 11:36:44;;;;;;;0.90;0.77;;;30.30;99.90;;;;;;5014192;28;20418;-77
2021/08/11 11:39:13;;;;;;;1.40;1.00;;;30.20;99.90;;;;;;5015145;28;20395;-77
2021/08/11 11:44:42;;;;;;;1.40;1.30;;;30.60;99.90;;;;;;5016055;28;20403;-78
2021/08/11 11:47:13;;;;;;;1.30;1.00;;;31.00;99.90;;;;;;5015580;28;20433;-77
2021/08/11 11:49:39;;;;;;;1.73;0.83;;;31.50;99.90;;;;;;5015146;28;20465;-76
2021/08/11 11:52:15;;;;;;;1.87;1.13;;;31.40;99.70;;;;;;5015004;28;20399;-77
2021/08/11 11:54:48;;;;;;;1.13;1.03;;;31.50;96.90;;;;;;5014363;28;20441;-76
2021/08/11 11:57:16;;;;;;;1.53;1.23;;;31.50;98.70;;;;;;5013868;28;20486;-76
2021/08/11 11:59:46;;;;;;;1.17;0.93;;;31.90;99.30;;;;;;5013904;28;20931;-76
2021/08/11 12:02:23;;;;;;;1.97;0.93;;;32.30;97.30;;;;;;5012555;28;20415;-75
2021/08/11 12:05:02;;;;;;;1.17;1.07;;;32.70;99.90;;;;;;5013679;28;20453;-76
2021/08/11 12:07:32;;;;;;;1.10;0.80;;;32.80;99.90;;;;;;5013759;28;20415;-76
2021/08/11 12:10:03;;;;;;;2.43;2.23;;;32.80;99.90;;;;;;5013138;28;20458;-76
2021/08/11 12:12:28;;;;;;;1.70;1.10;;;32.80;99.90;;;;;;5025570;28;20412;-76
2021/08/11 12:15:17;;;;;;;1.13;1.03;;;32.80;99.90;;;;;;5030439;28;20507;-77
2021/08/11 12:17:43;;;;;;;3.47;1.40;;;32.30;99.90;;;;;;5016396;28;20557;-78
2021/08/11 12:20:45;;;;;;;1.73;0.97;;;32.20;99.90;;;;;;5015814;28;20410;-78
2021/08/11 12:23:26;;;;;;;1.30;0.87;;;32.40;99.90;;;;;;4956449;28;20503;-76
2021/08/11 12:26:05;;;;;;;1.30;1.20;;;32.80;99.90;;;;;;5008908;28;20442;-76
2021/08/11 12:28:37;;;;;;;1.00;0.80;;;33.10;99.90;;;;;;5020322;28;20781;-76
2021/08/11 12:31:13;;;;;;;1.03;0.90;;;33.00;97.70;;;;;;5032647;28;20457;-76
2021/08/11 12:33:42;;;;;;;1.43;1.30;;;33.00;97.80;;;;;;5031885;28;20421;-78
2021/08/11 12:36:20;;;;;;;1.63;1.53;;;33.00;98.60;;;;;;5019680;28;20435;-78
2021/08/11 12:39:01;;;;;;;1.20;1.10;;;33.10;98.30;;;;;;5015507;28;20415;-76
2021/08/11 12:41:28;;;;;;;1.37;1.23;;;33.20;96.00;;;;;;5015732;28;20762;-78
2021/08/11 12:43:56;;;;;;;2.60;1.13;;;33.40;96.30;;;;;;5023033;28;20937;-74
2021/08/11 12:46:43;;;;;;;1.50;1.10;;;33.40;95.30;;;;;;5030852;28;20841;-75
2021/08/11 12:49:41;;;;;;;1.17;1.00;;;33.50;93.70;;;;;;5032568;28;20457;-74
2021/08/11 12:52:09;;;;;;;1.20;1.00;;;33.70;91.20;;;;;;5020051;28;20447;-75
2021/08/11 12:55:01;;;;;;;1.10;0.87;;;33.40;90.20;;;;;;5021823;28;20406;-74